sensor_id;sensor_type;location;lat;lon;timestamp;pressure;altitude;pressure_sealevel;temperature;humidity
29359;BME280;16347;53.232;6.556;2023-01-13T00:00:28;99931.88;;;10.44;66.24
29359;BME280;16347;53.232;6.556;2023-01-13T00:02:57;99966.63;;;10.57;65.63
29359;BME280;16347;53.232;6.556;2023-01-13T00:05:25;99917.88;;;10.55;64.36
29359;BME280;16347;53.232;6.556;2023-01-13T00:07:53;99905.97;;;10.56;63.40
29359;BME280;16347;53.232;6.556;2023-01-13T00:10:21;99922.69;;;10.45;64.11
29359;BME280;16347;53.232;6.556;2023-01-13T00:12:51;99913.31;;;10.48;64.86
29359;BME280;16347;53.232;6.556;2023-01-13T00:15:20;99914.91;;;10.65;64.85
29359;BME280;16347;53.232;6.556;2023-01-13T00:17:48;99910.94;;;10.53;65.40
29359;BME280;16347;53.232;6.556;2023-01-13T00:20:16;99916.25;;;10.07;67.15
29359;BME280;16347;53.232;6.556;2023-01-13T00:22:44;99938.34;;;10.04;67.39
29359;BME280;16347;53.232;6.556;2023-01-13T00:25:13;99928.34;;;10.05;67.43
29359;BME280;16347;53.232;6.556;2023-01-13T00:27:41;99925.00;;;9.95;67.08
29359;BME280;16347;53.232;6.556;2023-01-13T00:30:11;99911.97;;;9.90;67.15
29359;BME280;16347;53.232;6.556;2023-01-13T00:32:40;99911.28;;;9.88;66.56
29359;BME280;16347;53.232;6.556;2023-01-13T00:35:08;99923.00;;;9.89;66.51
29359;BME280;16347;53.232;6.556;2023-01-13T00:37:36;99927.94;;;9.77;66.51
29359;BME280;16347;53.232;6.556;2023-01-13T00:40:06;99925.34;;;9.92;66.21
29359;BME280;16347;53.232;6.556;2023-01-13T00:42:34;99919.28;;;9.82;65.94
29359;BME280;16347;53.232;6.556;2023-01-13T00:45:21;99924.81;;;9.57;66.54
29359;BME280;16347;53.232;6.556;2023-01-13T00:47:49;99924.06;;;9.79;66.66
29359;BME280;16347;53.232;6.556;2023-01-13T00:50:17;99918.44;;;9.81;66.23
29359;BME280;16347;53.232;6.556;2023-01-13T00:52:45;99916.56;;;9.82;66.56
29359;BME280;16347;53.232;6.556;2023-01-13T00:55:13;99935.63;;;9.73;66.62
29359;BME280;16347;53.232;6.556;2023-01-13T00:57:42;99920.78;;;9.45;67.65
29359;BME280;16347;53.232;6.556;2023-01-13T01:00:11;99928.72;;;9.55;67.30
29359;BME280;16347;53.232;6.556;2023-01-13T01:02:40;99921.28;;;9.41;67.69
29359;BME280;16347;53.232;6.556;2023-01-13T01:05:09;99904.16;;;9.48;67.40
29359;BME280;16347;53.232;6.556;2023-01-13T01:07:37;99908.88;;;9.54;66.73
29359;BME280;16347;53.232;6.556;2023-01-13T01:10:06;99918.84;;;9.70;66.46
29359;BME280;16347;53.232;6.556;2023-01-13T01:12:34;99904.22;;;9.79;65.74
29359;BME280;16347;53.232;6.556;2023-01-13T01:15:04;99912.84;;;9.83;65.42
29359;BME280;16347;53.232;6.556;2023-01-13T01:17:35;99902.84;;;9.75;65.11
29359;BME280;16347;53.232;6.556;2023-01-13T01:20:05;99905.78;;;9.65;65.17
29359;BME280;16347;53.232;6.556;2023-01-13T01:22:33;99914.72;;;9.74;64.68
29359;BME280;16347;53.232;6.556;2023-01-13T01:25:01;99921.34;;;9.79;64.39
29359;BME280;16347;53.232;6.556;2023-01-13T01:27:30;99913.72;;;9.75;63.83
29359;BME280;16347;53.232;6.556;2023-01-13T01:29:58;99912.41;;;9.63;64.23
29359;BME280;16347;53.232;6.556;2023-01-13T01:32:27;99902.78;;;9.52;65.27
29359;BME280;16347;53.232;6.556;2023-01-13T01:34:55;99900.28;;;9.35;65.24
29359;BME280;16347;53.232;6.556;2023-01-13T01:37:24;99911.13;;;9.35;66.17
29359;BME280;16347;53.232;6.556;2023-01-13T01:39:52;99913.50;;;9.46;65.93
29359;BME280;16347;53.232;6.556;2023-01-13T01:42:21;99912.84;;;9.36;66.09
29359;BME280;16347;53.232;6.556;2023-01-13T01:45:14;99907.56;;;9.42;66.19
29359;BME280;16347;53.232;6.556;2023-01-13T01:47:46;99927.25;;;9.20;66.78
29359;BME280;16347;53.232;6.556;2023-01-13T01:50:16;99919.78;;;9.30;66.54
29359;BME280;16347;53.232;6.556;2023-01-13T01:52:50;99919.97;;;9.20;66.58
29359;BME280;16347;53.232;6.556;2023-01-13T01:55:21;99903.69;;;9.37;66.66
29359;BME280;16347;53.232;6.556;2023-01-13T01:57:52;99906.22;;;9.38;66.19
29359;BME280;16347;53.232;6.556;2023-01-13T02:00:24;99910.56;;;9.55;65.85
29359;BME280;16347;53.232;6.556;2023-01-13T02:02:55;99897.00;;;9.55;65.76
29359;BME280;16347;53.232;6.556;2023-01-13T02:05:24;99901.78;;;9.53;65.13
29359;BME280;16347;53.232;6.556;2023-01-13T02:07:55;99892.09;;;9.51;65.21
29359;BME280;16347;53.232;6.556;2023-01-13T02:10:26;99910.63;;;9.39;65.75
29359;BME280;16347;53.232;6.556;2023-01-13T02:12:58;99907.78;;;9.24;66.08
29359;BME280;16347;53.232;6.556;2023-01-13T02:15:32;99905.56;;;9.36;65.82
29359;BME280;16347;53.232;6.556;2023-01-13T02:18:16;99904.00;;;9.42;65.83
29359;BME280;16347;53.232;6.556;2023-01-13T02:21:00;99905.31;;;9.54;65.48
29359;BME280;16347;53.232;6.556;2023-01-13T02:24:27;99874.72;;;9.68;65.22
29359;BME280;16347;53.232;6.556;2023-01-13T02:27:39;99890.91;;;9.53;66.29
29359;BME280;16347;53.232;6.556;2023-01-13T02:30:17;99875.66;;;9.52;65.67
29359;BME280;16347;53.232;6.556;2023-01-13T02:33:19;99873.78;;;9.53;66.65
29359;BME280;16347;53.232;6.556;2023-01-13T02:35:56;99881.59;;;9.48;66.81
29359;BME280;16347;53.232;6.556;2023-01-13T02:38:30;99867.94;;;9.33;67.06
29359;BME280;16347;53.232;6.556;2023-01-13T02:41:03;99872.50;;;9.33;67.21
29359;BME280;16347;53.232;6.556;2023-01-13T02:43:47;99873.69;;;9.30;67.86
29359;BME280;16347;53.232;6.556;2023-01-13T02:46:44;99868.00;;;9.56;67.10
29359;BME280;16347;53.232;6.556;2023-01-13T02:49:20;99873.22;;;9.26;67.95
29359;BME280;16347;53.232;6.556;2023-01-13T02:51:52;99880.09;;;9.37;67.59
29359;BME280;16347;53.232;6.556;2023-01-13T02:54:25;99878.28;;;9.30;67.67
29359;BME280;16347;53.232;6.556;2023-01-13T02:56:54;99854.69;;;9.30;67.65
29359;BME280;16347;53.232;6.556;2023-01-13T02:59:25;99868.44;;;9.20;67.97
29359;BME280;16347;53.232;6.556;2023-01-13T03:01:56;99856.75;;;9.20;68.00
29359;BME280;16347;53.232;6.556;2023-01-13T03:04:57;99848.94;;;9.25;67.91
29359;BME280;16347;53.232;6.556;2023-01-13T03:07:49;99847.41;;;9.31;68.14
29359;BME280;16347;53.232;6.556;2023-01-13T03:13:22;99835.69;;;9.38;68.04
29359;BME280;16347;53.232;6.556;2023-01-13T03:16:00;99828.91;;;9.34;68.59
29359;BME280;16347;53.232;6.556;2023-01-13T03:18:41;99809.03;;;9.42;68.12
29359;BME280;16347;53.232;6.556;2023-01-13T03:21:18;99824.88;;;9.61;67.56
29359;BME280;16347;53.232;6.556;2023-01-13T03:23:49;99842.06;;;9.53;67.44
29359;BME280;16347;53.232;6.556;2023-01-13T03:26:24;99837.44;;;9.62;67.58
29359;BME280;16347;53.232;6.556;2023-01-13T03:28:58;99838.59;;;9.67;66.90
29359;BME280;16347;53.232;6.556;2023-01-13T03:31:30;99838.75;;;9.35;67.68
29359;BME280;16347;53.232;6.556;2023-01-13T03:34:05;99836.25;;;9.17;68.51
29359;BME280;16347;53.232;6.556;2023-01-13T03:36:38;99831.31;;;9.29;68.07
29359;BME280;16347;53.232;6.556;2023-01-13T03:39:10;99831.81;;;9.24;67.95
29359;BME280;16347;53.232;6.556;2023-01-13T03:41:42;99833.03;;;9.14;68.06
29359;BME280;16347;53.232;6.556;2023-01-13T03:44:14;99816.38;;;9.33;67.57
29359;BME280;16347;53.232;6.556;2023-01-13T03:46:55;99822.69;;;9.25;67.77
29359;BME280;16347;53.232;6.556;2023-01-13T03:49:32;99816.41;;;9.25;68.09
29359;BME280;16347;53.232;6.556;2023-01-13T03:52:06;99832.19;;;9.13;68.63
29359;BME280;16347;53.232;6.556;2023-01-13T03:54:38;99818.31;;;9.16;68.85
29359;BME280;16347;53.232;6.556;2023-01-13T03:57:13;99820.13;;;9.24;67.96
29359;BME280;16347;53.232;6.556;2023-01-13T03:59:46;99832.53;;;9.26;67.93
29359;BME280;16347;53.232;6.556;2023-01-13T04:02:20;99822.59;;;9.42;67.58
29359;BME280;16347;53.232;6.556;2023-01-13T04:04:56;99806.91;;;9.29;67.49
29359;BME280;16347;53.232;6.556;2023-01-13T04:07:31;99810.06;;;9.41;67.10
29359;BME280;16347;53.232;6.556;2023-01-13T04:10:05;99834.81;;;9.46;66.97
29359;BME280;16347;53.232;6.556;2023-01-13T04:12:37;99801.13;;;9.32;67.39
29359;BME280;16347;53.232;6.556;2023-01-13T04:15:26;99807.47;;;9.16;67.39
29359;BME280;16347;53.232;6.556;2023-01-13T04:18:01;99804.00;;;9.31;67.49
29359;BME280;16347;53.232;6.556;2023-01-13T04:20:31;99791.75;;;9.43;67.86
29359;BME280;16347;53.232;6.556;2023-01-13T04:22:59;99816.88;;;9.37;67.93
29359;BME280;16347;53.232;6.556;2023-01-13T04:25:27;99794.75;;;9.48;67.83
29359;BME280;16347;53.232;6.556;2023-01-13T04:27:55;99805.69;;;9.32;67.64
29359;BME280;16347;53.232;6.556;2023-01-13T04:30:23;99788.50;;;9.08;68.99
29359;BME280;16347;53.232;6.556;2023-01-13T04:32:51;99803.22;;;9.14;69.11
29359;BME280;16347;53.232;6.556;2023-01-13T04:35:19;99797.00;;;8.97;69.66
29359;BME280;16347;53.232;6.556;2023-01-13T04:37:48;99814.25;;;9.04;69.22
29359;BME280;16347;53.232;6.556;2023-01-13T04:40:16;99814.25;;;9.04;68.83
29359;BME280;16347;53.232;6.556;2023-01-13T04:42:45;99808.53;;;8.91;69.67
29359;BME280;16347;53.232;6.556;2023-01-13T04:45:13;99792.56;;;9.04;69.45
29359;BME280;16347;53.232;6.556;2023-01-13T04:47:41;99791.50;;;9.13;69.20
29359;BME280;16347;53.232;6.556;2023-01-13T04:50:10;99797.28;;;9.18;68.45
29359;BME280;16347;53.232;6.556;2023-01-13T04:52:38;99792.16;;;9.23;67.73
29359;BME280;16347;53.232;6.556;2023-01-13T04:55:09;99783.22;;;9.15;68.10
29359;BME280;16347;53.232;6.556;2023-01-13T04:57:37;99767.66;;;9.09;67.85
29359;BME280;16347;53.232;6.556;2023-01-13T05:00:07;99798.47;;;9.16;67.76
29359;BME280;16347;53.232;6.556;2023-01-13T05:02:36;99788.78;;;9.21;67.53
29359;BME280;16347;53.232;6.556;2023-01-13T05:05:05;99783.84;;;9.33;66.73
29359;BME280;16347;53.232;6.556;2023-01-13T05:07:34;99800.00;;;9.18;67.04
29359;BME280;16347;53.232;6.556;2023-01-13T05:10:03;99777.91;;;9.30;66.84
29359;BME280;16347;53.232;6.556;2023-01-13T05:12:32;99774.00;;;9.32;66.20
29359;BME280;16347;53.232;6.556;2023-01-13T05:15:18;99771.56;;;9.45;66.32
29359;BME280;16347;53.232;6.556;2023-01-13T05:18:04;99774.72;;;9.26;66.09
29359;BME280;16347;53.232;6.556;2023-01-13T05:20:32;99772.28;;;9.39;66.33
29359;BME280;16347;53.232;6.556;2023-01-13T05:23:01;99775.56;;;9.26;66.20
29359;BME280;16347;53.232;6.556;2023-01-13T05:25:47;99782.75;;;9.42;65.80
29359;BME280;16347;53.232;6.556;2023-01-13T05:28:17;99788.34;;;9.02;65.74
29359;BME280;16347;53.232;6.556;2023-01-13T05:30:46;99773.09;;;9.09;65.53
29359;BME280;16347;53.232;6.556;2023-01-13T05:33:17;99800.66;;;9.20;64.79
29359;BME280;16347;53.232;6.556;2023-01-13T05:35:46;99776.19;;;9.37;64.80
29359;BME280;16347;53.232;6.556;2023-01-13T05:38:14;99793.47;;;9.36;64.25
29359;BME280;16347;53.232;6.556;2023-01-13T05:40:43;99777.41;;;9.26;64.81
29359;BME280;16347;53.232;6.556;2023-01-13T05:43:30;99787.19;;;9.35;64.23
29359;BME280;16347;53.232;6.556;2023-01-13T05:46:01;99781.63;;;9.37;64.42
29359;BME280;16347;53.232;6.556;2023-01-13T05:48:31;99771.59;;;9.37;63.32
29359;BME280;16347;53.232;6.556;2023-01-13T05:51:00;99776.66;;;9.40;63.87
29359;BME280;16347;53.232;6.556;2023-01-13T05:53:29;99772.94;;;9.41;63.53
29359;BME280;16347;53.232;6.556;2023-01-13T05:55:58;99778.41;;;9.33;63.67
29359;BME280;16347;53.232;6.556;2023-01-13T05:58:26;99793.28;;;9.37;63.81
29359;BME280;16347;53.232;6.556;2023-01-13T06:01:01;99779.94;;;9.27;64.39
29359;BME280;16347;53.232;6.556;2023-01-13T06:03:30;99786.19;;;9.36;64.40
29359;BME280;16347;53.232;6.556;2023-01-13T06:05:58;99763.38;;;9.53;64.04
29359;BME280;16347;53.232;6.556;2023-01-13T06:08:29;99781.81;;;9.58;63.69
29359;BME280;16347;53.232;6.556;2023-01-13T06:10:57;99776.88;;;9.31;64.42
29359;BME280;16347;53.232;6.556;2023-01-13T06:13:25;99789.75;;;9.37;64.93
29359;BME280;16347;53.232;6.556;2023-01-13T06:15:55;99782.28;;;9.31;65.71
29359;BME280;16347;53.232;6.556;2023-01-13T06:18:26;99778.34;;;9.41;65.99
29359;BME280;16347;53.232;6.556;2023-01-13T06:20:55;99754.13;;;9.40;66.78
29359;BME280;16347;53.232;6.556;2023-01-13T06:23:23;99762.47;;;9.30;66.54
29359;BME280;16347;53.232;6.556;2023-01-13T06:25:57;99753.44;;;9.38;65.83
29359;BME280;16347;53.232;6.556;2023-01-13T06:28:28;99780.41;;;9.39;66.37
29359;BME280;16347;53.232;6.556;2023-01-13T06:30:59;99782.50;;;9.21;65.94
29359;BME280;16347;53.232;6.556;2023-01-13T06:33:32;99771.81;;;9.27;65.83
29359;BME280;16347;53.232;6.556;2023-01-13T06:36:06;99785.84;;;9.39;65.51
29359;BME280;16347;53.232;6.556;2023-01-13T06:38:40;99787.66;;;9.47;65.38
29359;BME280;16347;53.232;6.556;2023-01-13T06:41:10;99796.63;;;9.47;66.16
29359;BME280;16347;53.232;6.556;2023-01-13T06:43:39;99792.28;;;9.30;67.73
29359;BME280;16347;53.232;6.556;2023-01-13T06:46:06;99785.06;;;9.22;68.76
29359;BME280;16347;53.232;6.556;2023-01-13T06:48:36;99778.22;;;8.96;69.94
29359;BME280;16347;53.232;6.556;2023-01-13T06:51:04;99800.75;;;8.96;70.24
29359;BME280;16347;53.232;6.556;2023-01-13T06:53:32;99791.47;;;8.74;71.09
29359;BME280;16347;53.232;6.556;2023-01-13T06:56:00;99792.78;;;8.87;71.62
29359;BME280;16347;53.232;6.556;2023-01-13T06:58:29;99800.09;;;8.78;71.80
29359;BME280;16347;53.232;6.556;2023-01-13T07:00:59;99795.03;;;8.75;72.33
29359;BME280;16347;53.232;6.556;2023-01-13T07:03:27;99795.50;;;8.87;72.06
29359;BME280;16347;53.232;6.556;2023-01-13T07:05:57;99806.31;;;9.03;71.64
29359;BME280;16347;53.232;6.556;2023-01-13T07:08:26;99797.75;;;8.67;72.64
29359;BME280;16347;53.232;6.556;2023-01-13T07:10:54;99820.63;;;8.56;73.42
29359;BME280;16347;53.232;6.556;2023-01-13T07:13:23;99809.13;;;8.54;73.50
29359;BME280;16347;53.232;6.556;2023-01-13T07:16:08;99819.78;;;8.64;74.38
29359;BME280;16347;53.232;6.556;2023-01-13T07:18:37;99826.72;;;8.50;74.13
29359;BME280;16347;53.232;6.556;2023-01-13T07:21:09;99823.16;;;8.58;74.52
29359;BME280;16347;53.232;6.556;2023-01-13T07:23:39;99820.28;;;8.43;75.08
29359;BME280;16347;53.232;6.556;2023-01-13T07:26:08;99810.16;;;8.45;75.44
29359;BME280;16347;53.232;6.556;2023-01-13T07:28:37;99832.34;;;8.33;75.00
29359;BME280;16347;53.232;6.556;2023-01-13T07:31:12;99811.84;;;8.30;76.12
29359;BME280;16347;53.232;6.556;2023-01-13T07:33:40;99823.47;;;8.14;76.26
29359;BME280;16347;53.232;6.556;2023-01-13T07:36:10;99833.50;;;8.30;76.48
29359;BME280;16347;53.232;6.556;2023-01-13T07:38:39;99813.19;;;8.34;76.01
29359;BME280;16347;53.232;6.556;2023-01-13T07:41:11;99809.13;;;8.38;76.25
29359;BME280;16347;53.232;6.556;2023-01-13T07:43:58;99812.81;;;8.21;76.15
29359;BME280;16347;53.232;6.556;2023-01-13T07:46:30;99820.28;;;8.27;76.15
29359;BME280;16347;53.232;6.556;2023-01-13T07:48:58;99810.28;;;8.27;75.52
29359;BME280;16347;53.232;6.556;2023-01-13T07:51:28;99805.22;;;8.24;75.67
29359;BME280;16347;53.232;6.556;2023-01-13T07:53:57;99795.41;;;8.40;75.32
29359;BME280;16347;53.232;6.556;2023-01-13T07:56:24;99800.16;;;8.38;75.58
29359;BME280;16347;53.232;6.556;2023-01-13T07:58:53;99806.59;;;8.45;75.60
29359;BME280;16347;53.232;6.556;2023-01-13T08:01:21;99805.06;;;8.42;75.13
29359;BME280;16347;53.232;6.556;2023-01-13T08:03:49;99814.53;;;8.22;75.71
29359;BME280;16347;53.232;6.556;2023-01-13T08:06:17;99800.31;;;8.44;74.98
29359;BME280;16347;53.232;6.556;2023-01-13T08:08:46;99807.44;;;8.45;75.13
29359;BME280;16347;53.232;6.556;2023-01-13T08:11:14;99826.91;;;8.41;74.86
29359;BME280;16347;53.232;6.556;2023-01-13T08:13:43;99826.94;;;8.33;75.02
29359;BME280;16347;53.232;6.556;2023-01-13T08:16:13;99814.53;;;8.46;74.51
29359;BME280;16347;53.232;6.556;2023-01-13T08:18:42;99803.53;;;8.56;73.68
29359;BME280;16347;53.232;6.556;2023-01-13T08:21:11;99819.97;;;8.54;73.18
29359;BME280;16347;53.232;6.556;2023-01-13T08:23:41;99831.81;;;8.45;72.97
29359;BME280;16347;53.232;6.556;2023-01-13T08:26:13;99799.59;;;8.66;73.04
29359;BME280;16347;53.232;6.556;2023-01-13T08:28:41;99811.47;;;8.73;72.62
29359;BME280;16347;53.232;6.556;2023-01-13T08:31:11;99802.66;;;8.71;72.58
29359;BME280;16347;53.232;6.556;2023-01-13T08:33:39;99810.59;;;8.73;72.59
29359;BME280;16347;53.232;6.556;2023-01-13T08:36:10;99798.56;;;8.84;71.96
29359;BME280;16347;53.232;6.556;2023-01-13T08:38:41;99805.53;;;8.70;71.50
29359;BME280;16347;53.232;6.556;2023-01-13T08:41:11;99807.41;;;8.69;72.06
29359;BME280;16347;53.232;6.556;2023-01-13T08:43:39;99822.31;;;8.65;72.50
29359;BME280;16347;53.232;6.556;2023-01-13T08:46:07;99827.72;;;8.82;71.78
29359;BME280;16347;53.232;6.556;2023-01-13T08:48:35;99820.78;;;8.79;71.30
29359;BME280;16347;53.232;6.556;2023-01-13T08:51:06;99823.31;;;8.81;71.20
29359;BME280;16347;53.232;6.556;2023-01-13T08:53:34;99872.63;;;8.76;71.42
29359;BME280;16347;53.232;6.556;2023-01-13T08:56:06;99879.91;;;8.59;72.19
29359;BME280;16347;53.232;6.556;2023-01-13T08:58:37;99855.13;;;8.87;72.23
29359;BME280;16347;53.232;6.556;2023-01-13T09:01:07;99841.78;;;8.77;73.02
29359;BME280;16347;53.232;6.556;2023-01-13T09:03:36;99824.34;;;8.80;73.24
29359;BME280;16347;53.232;6.556;2023-01-13T09:06:05;99838.91;;;8.70;73.38
29359;BME280;16347;53.232;6.556;2023-01-13T09:08:33;99860.94;;;8.75;73.46
29359;BME280;16347;53.232;6.556;2023-01-13T09:11:01;99875.50;;;8.74;73.94
29359;BME280;16347;53.232;6.556;2023-01-13T09:13:51;99872.81;;;8.42;75.71
29359;BME280;16347;53.232;6.556;2023-01-13T09:16:18;99880.75;;;8.52;75.86
29359;BME280;16347;53.232;6.556;2023-01-13T09:18:47;99873.81;;;8.65;75.80
29359;BME280;16347;53.232;6.556;2023-01-13T09:21:15;99867.88;;;8.62;75.37
29359;BME280;16347;53.232;6.556;2023-01-13T09:23:45;99878.72;;;8.46;75.70
29359;BME280;16347;53.232;6.556;2023-01-13T09:26:15;99875.34;;;8.52;75.00
29359;BME280;16347;53.232;6.556;2023-01-13T09:28:46;99914.09;;;8.28;74.77
29359;BME280;16347;53.232;6.556;2023-01-13T09:31:15;99881.69;;;8.10;75.66
29359;BME280;16347;53.232;6.556;2023-01-13T09:33:43;99900.16;;;8.23;76.69
29359;BME280;16347;53.232;6.556;2023-01-13T09:36:30;99898.63;;;8.20;76.52
29359;BME280;16347;53.232;6.556;2023-01-13T09:38:58;99936.69;;;8.11;76.82
29359;BME280;16347;53.232;6.556;2023-01-13T09:41:28;99915.69;;;8.05;77.52
29359;BME280;16347;53.232;6.556;2023-01-13T09:44:18;99925.19;;;8.09;78.43
29359;BME280;16347;53.232;6.556;2023-01-13T09:46:52;99913.53;;;8.24;78.01
29359;BME280;16347;53.232;6.556;2023-01-13T09:49:30;99889.53;;;8.38;77.95
29359;BME280;16347;53.232;6.556;2023-01-13T09:52:03;99901.91;;;8.32;77.98
29359;BME280;16347;53.232;6.556;2023-01-13T09:54:37;99911.72;;;8.41;77.85
29359;BME280;16347;53.232;6.556;2023-01-13T09:57:09;99921.19;;;8.29;78.71
29359;BME280;16347;53.232;6.556;2023-01-13T09:59:38;99938.22;;;8.13;79.45
29359;BME280;16347;53.232;6.556;2023-01-13T10:02:22;99930.97;;;8.22;79.29
29359;BME280;16347;53.232;6.556;2023-01-13T10:05:05;99908.59;;;8.12;79.43
29359;BME280;16347;53.232;6.556;2023-01-13T10:07:36;99899.28;;;8.14;80.33
29359;BME280;16347;53.232;6.556;2023-01-13T10:10:13;99908.66;;;8.28;80.55
29359;BME280;16347;53.232;6.556;2023-01-13T10:12:45;99904.88;;;8.13;80.22
29359;BME280;16347;53.232;6.556;2023-01-13T10:15:34;99920.78;;;8.08;80.37
29359;BME280;16347;53.232;6.556;2023-01-13T10:18:12;99937.53;;;8.11;80.22
29359;BME280;16347;53.232;6.556;2023-01-13T10:20:51;99931.44;;;8.17;79.98
29359;BME280;16347;53.232;6.556;2023-01-13T10:23:52;99927.22;;;8.23;79.88
29359;BME280;16347;53.232;6.556;2023-01-13T10:26:40;99950.69;;;8.06;79.98
29359;BME280;16347;53.232;6.556;2023-01-13T10:29:21;99935.00;;;8.18;80.21
29359;BME280;16347;53.232;6.556;2023-01-13T10:31:51;99921.19;;;8.29;79.23
29359;BME280;16347;53.232;6.556;2023-01-13T10:34:22;99930.16;;;8.30;79.29
29359;BME280;16347;53.232;6.556;2023-01-13T10:36:58;99921.13;;;8.21;78.71
29359;BME280;16347;53.232;6.556;2023-01-13T10:39:39;99920.88;;;8.32;78.92
29359;BME280;16347;53.232;6.556;2023-01-13T10:42:13;99924.94;;;8.44;78.85
29359;BME280;16347;53.232;6.556;2023-01-13T10:44:47;99931.88;;;8.39;78.51
29359;BME280;16347;53.232;6.556;2023-01-13T10:47:21;99962.34;;;8.33;78.46
29359;BME280;16347;53.232;6.556;2023-01-13T10:50:03;99930.53;;;8.51;78.33
29359;BME280;16347;53.232;6.556;2023-01-13T10:52:56;99950.50;;;8.42;78.79
29359;BME280;16347;53.232;6.556;2023-01-13T10:55:27;99937.81;;;8.50;78.63
29359;BME280;16347;53.232;6.556;2023-01-13T10:58:10;99938.84;;;8.73;78.04
29359;BME280;16347;53.232;6.556;2023-01-13T11:00:38;99946.31;;;8.80;77.46
29359;BME280;16347;53.232;6.556;2023-01-13T11:03:16;99955.44;;;8.62;77.79
29359;BME280;16347;53.232;6.556;2023-01-13T11:05:50;99931.56;;;8.66;77.19
29359;BME280;16347;53.232;6.556;2023-01-13T11:08:22;99932.75;;;8.55;77.65
29359;BME280;16347;53.232;6.556;2023-01-13T11:10:52;99949.81;;;8.48;77.75
29359;BME280;16347;53.232;6.556;2023-01-13T11:13:27;99956.44;;;8.61;77.63
29359;BME280;16347;53.232;6.556;2023-01-13T11:16:00;99945.28;;;8.72;77.03
29359;BME280;16347;53.232;6.556;2023-01-13T11:18:38;99971.69;;;8.70;76.83
29359;BME280;16347;53.232;6.556;2023-01-13T11:21:16;99961.91;;;8.86;76.67
29359;BME280;16347;53.232;6.556;2023-01-13T11:23:53;99960.34;;;8.83;76.57
29359;BME280;16347;53.232;6.556;2023-01-13T11:26:38;99967.13;;;8.95;76.67
29359;BME280;16347;53.232;6.556;2023-01-13T11:29:11;99963.59;;;9.03;76.24
29359;BME280;16347;53.232;6.556;2023-01-13T11:31:45;99962.56;;;8.96;76.41
29359;BME280;16347;53.232;6.556;2023-01-13T11:34:26;99990.16;;;8.83;76.40
29359;BME280;16347;53.232;6.556;2023-01-13T11:36:58;99964.59;;;9.02;76.45
29359;BME280;16347;53.232;6.556;2023-01-13T11:39:40;99971.22;;;8.99;75.52
29359;BME280;16347;53.232;6.556;2023-01-13T11:42:17;100007.13;;;8.85;75.71
29359;BME280;16347;53.232;6.556;2023-01-13T11:44:52;99968.81;;;8.80;75.90
29359;BME280;16347;53.232;6.556;2023-01-13T11:47:23;99996.97;;;8.79;75.09
29359;BME280;16347;53.232;6.556;2023-01-13T11:49:53;99982.22;;;8.90;74.53
29359;BME280;16347;53.232;6.556;2023-01-13T11:52:28;100006.81;;;8.96;73.98
29359;BME280;16347;53.232;6.556;2023-01-13T11:55:10;99993.75;;;9.00;73.32
29359;BME280;16347;53.232;6.556;2023-01-13T11:58:02;100004.09;;;9.12;73.22
29359;BME280;16347;53.232;6.556;2023-01-13T12:03:47;99993.75;;;9.00;73.88
29359;BME280;16347;53.232;6.556;2023-01-13T12:06:21;100009.31;;;8.98;73.86
29359;BME280;16347;53.232;6.556;2023-01-13T12:09:12;99993.22;;;8.88;73.40
29359;BME280;16347;53.232;6.556;2023-01-13T12:11:58;100011.69;;;9.17;73.65
29359;BME280;16347;53.232;6.556;2023-01-13T12:15:02;100017.97;;;9.25;73.67
29359;BME280;16347;53.232;6.556;2023-01-13T12:17:40;99994.41;;;9.10;73.76
29359;BME280;16347;53.232;6.556;2023-01-13T12:20:23;100002.38;;;9.11;73.77
29359;BME280;16347;53.232;6.556;2023-01-13T12:22:55;99995.25;;;9.18;73.43
29359;BME280;16347;53.232;6.556;2023-01-13T12:25:33;100025.41;;;9.07;72.92
29359;BME280;16347;53.232;6.556;2023-01-13T12:28:10;100025.25;;;9.01;72.35
29359;BME280;16347;53.232;6.556;2023-01-13T12:30:44;100017.63;;;9.28;71.86
29359;BME280;16347;53.232;6.556;2023-01-13T12:33:25;100036.09;;;9.41;71.50
29359;BME280;16347;53.232;6.556;2023-01-13T12:36:00;100030.84;;;9.32;72.29
29359;BME280;16347;53.232;6.556;2023-01-13T12:38:36;100016.59;;;9.38;71.95
29359;BME280;16347;53.232;6.556;2023-01-13T12:41:15;100027.63;;;9.44;71.20
29359;BME280;16347;53.232;6.556;2023-01-13T12:43:49;100022.22;;;9.28;71.43
29359;BME280;16347;53.232;6.556;2023-01-13T12:46:44;100043.56;;;9.31;71.22
29359;BME280;16347;53.232;6.556;2023-01-13T12:49:28;100034.06;;;9.27;70.88
29359;BME280;16347;53.232;6.556;2023-01-13T12:52:14;100019.63;;;9.59;70.90
29359;BME280;16347;53.232;6.556;2023-01-13T12:55:02;100049.47;;;9.59;70.26
29359;BME280;16347;53.232;6.556;2023-01-13T12:57:33;100031.84;;;9.55;69.95
29359;BME280;16347;53.232;6.556;2023-01-13T13:00:16;100081.38;;;9.41;69.74
29359;BME280;16347;53.232;6.556;2023-01-13T13:06:05;100048.63;;;9.66;69.75
29359;BME280;16347;53.232;6.556;2023-01-13T13:08:43;100084.94;;;9.41;69.72
29359;BME280;16347;53.232;6.556;2023-01-13T13:11:37;100053.41;;;9.56;70.22
29359;BME280;16347;53.232;6.556;2023-01-13T13:15:00;100057.47;;;9.52;70.50
29359;BME280;16347;53.232;6.556;2023-01-13T13:17:44;100106.31;;;9.36;70.76
29359;BME280;16347;53.232;6.556;2023-01-13T13:21:02;100073.25;;;9.33;71.49
29359;BME280;16347;53.232;6.556;2023-01-13T13:23:43;100074.44;;;9.46;71.80
29359;BME280;16347;53.232;6.556;2023-01-13T13:26:19;100071.38;;;9.33;72.07
29359;BME280;16347;53.232;6.556;2023-01-13T13:29:00;100112.59;;;9.37;72.06
29359;BME280;16347;53.232;6.556;2023-01-13T13:31:48;100112.56;;;9.28;71.78
29359;BME280;16347;53.232;6.556;2023-01-13T13:34:27;100106.78;;;9.23;71.37
29359;BME280;16347;53.232;6.556;2023-01-13T13:37:19;100108.50;;;9.41;71.52
29359;BME280;16347;53.232;6.556;2023-01-13T13:39:54;100108.66;;;9.47;71.92
29359;BME280;16347;53.232;6.556;2023-01-13T13:42:42;100106.31;;;9.28;72.64
29359;BME280;16347;53.232;6.556;2023-01-13T13:45:28;100102.41;;;9.22;73.75
29359;BME280;16347;53.232;6.556;2023-01-13T13:48:23;100137.50;;;9.48;73.38
29359;BME280;16347;53.232;6.556;2023-01-13T13:50:53;100111.06;;;9.42;73.67
29359;BME280;16347;53.232;6.556;2023-01-13T13:53:26;100106.97;;;9.30;73.87
29359;BME280;16347;53.232;6.556;2023-01-13T13:55:56;100112.38;;;9.30;73.47